createdAt,value
2019-01-03T00:00:45.615Z,-0.20
2019-01-03T00:03:22.329Z,0.27
2019-01-03T00:05:58.655Z,0.27
2019-01-03T00:10:35.129Z,0.28
2019-01-03T00:13:13.541Z,0.29
2019-01-03T00:15:49.772Z,0.25
2019-01-03T00:18:23.170Z,0.25
2019-01-03T00:22:01.546Z,0.13
2019-01-03T00:26:39.001Z,0.21
2019-01-03T00:29:18.347Z,0.04
2019-01-03T00:32:58.971Z,0.12
2019-01-03T00:35:32.184Z,-0.02
2019-01-03T00:38:05.388Z,0.08
2019-01-03T00:40:37.680Z,0.06
2019-01-03T00:43:17.503Z,0.07
2019-01-03T00:45:51.817Z,0.08
2019-01-03T00:50:29.596Z,-0.05
2019-01-03T00:53:09.104Z,0.10
2019-01-03T00:55:46.979Z,-0.02
2019-01-03T00:58:50.751Z,0.12
2019-01-03T01:03:32.343Z,0.12
2019-01-03T01:06:05.242Z,-0.08
2019-01-03T01:08:39.038Z,0.03
2019-01-03T01:13:18.325Z,0.18
2019-01-03T01:17:55.941Z,-1.15
2019-01-03T01:20:30.234Z,0.02
2019-01-03T01:25:10.889Z,0.12
2019-01-03T01:27:58.666Z,0.13
2019-01-03T01:30:35.270Z,0.11
2019-01-03T01:33:08.835Z,0.11
2019-01-03T01:35:43.323Z,0.11
2019-01-03T01:38:16.688Z,0.08
2019-01-03T01:41:04.026Z,0.06
2019-01-03T01:43:37.546Z,-0.10
2019-01-03T01:46:11.501Z,-0.24
2019-01-03T01:50:47.180Z,-0.01
2019-01-03T01:53:23.360Z,-0.03
2019-01-03T01:55:56.783Z,-0.03
2019-01-03T02:00:31.894Z,-0.05
2019-01-03T02:03:09.580Z,-0.08
2019-01-03T02:07:45.703Z,-0.46
2019-01-03T02:12:24.221Z,-0.40
2019-01-03T02:16:59.630Z,-0.23
2019-01-03T02:19:34.159Z,-0.30
2019-01-03T02:22:07.403Z,-0.65
2019-01-03T02:25:11.688Z,-0.31
2019-01-03T02:27:44.490Z,-0.32
2019-01-03T02:30:23.116Z,-0.33
2019-01-03T02:32:56.485Z,-0.34
2019-01-03T02:36:36.866Z,-0.37
2019-01-03T02:39:11.503Z,-0.49
2019-01-03T02:42:49.033Z,-0.39
2019-01-03T02:45:23.158Z,-0.42
2019-01-03T02:47:55.732Z,-0.44
2019-01-03T02:50:35.217Z,-0.45
2019-01-03T02:53:14.049Z,-0.45
2019-01-03T02:55:50.428Z,-0.48
2019-01-03T02:58:33.107Z,-0.48
2019-01-03T03:01:40.321Z,-0.74
2019-01-03T03:04:44.968Z,-0.53
2019-01-03T03:07:19.212Z,-0.79
2019-01-03T03:09:52.578Z,-0.55
2019-01-03T03:12:29.893Z,-0.80
2019-01-03T03:15:34.534Z,-0.56
2019-01-03T03:18:39.784Z,-0.55
2019-01-03T03:21:13.838Z,-0.54
2019-01-03T03:24:53.593Z,-0.63
2019-01-03T03:27:25.847Z,-0.90
2019-01-03T03:30:00.238Z,-0.76
2019-01-03T03:33:03.555Z,-0.93
2019-01-03T03:35:37.919Z,-0.69
2019-01-03T03:38:11.348Z,-0.70
2019-01-03T03:40:44.856Z,-0.58
2019-01-03T03:43:18.303Z,-0.93
2019-01-03T03:45:50.642Z,-0.58
2019-01-03T03:48:23.161Z,-0.59
2019-01-03T03:51:00.084Z,-0.60
2019-01-03T03:54:04.787Z,-0.73
2019-01-03T03:56:42.051Z,-0.65
2019-01-03T03:59:19.896Z,-1.13
2019-01-03T04:01:56.113Z,-0.69
2019-01-03T04:06:36.317Z,-0.69
2019-01-03T04:09:13.980Z,-0.66
2019-01-03T04:12:18.927Z,-0.67
2019-01-03T04:14:52.945Z,-1.03
2019-01-03T04:19:28.170Z,-0.71
2019-01-03T04:22:11.305Z,-0.88
2019-01-03T04:24:45.857Z,-0.75
2019-01-03T04:27:35.100Z,-0.77
2019-01-03T04:30:08.573Z,-1.03
2019-01-03T04:33:14.518Z,-0.83
2019-01-03T04:36:50.184Z,-0.91
2019-01-03T04:41:28.159Z,-0.95
2019-01-03T04:44:08.581Z,-1.24
2019-01-03T04:48:43.855Z,-1.42
2019-01-03T04:53:18.879Z,-1.51
2019-01-03T04:55:52.114Z,-1.42
2019-01-03T04:58:45.432Z,-1.19
2019-01-03T05:01:52.050Z,-1.26
2019-01-03T05:04:33.226Z,-1.28
2019-01-03T05:10:04.774Z,-1.40
2019-01-03T05:12:41.649Z,-1.30
2019-01-03T05:15:18.118Z,-1.65
2019-01-03T05:17:51.515Z,-1.29
2019-01-03T05:20:31.314Z,-1.42
2019-01-03T05:23:38.918Z,-1.32
2019-01-03T05:26:26.751Z,-1.78
2019-01-03T05:29:26.390Z,-1.68
2019-01-03T05:33:02.511Z,-1.35
2019-01-03T05:37:41.369Z,-1.36
2019-01-03T05:41:17.327Z,-2.19
2019-01-03T05:43:50.901Z,-1.45
2019-01-03T05:47:28.369Z,-1.46
2019-01-03T05:50:07.653Z,-1.49
2019-01-03T05:52:40.999Z,-1.51
2019-01-03T05:55:14.557Z,-1.52
2019-01-03T05:58:01.848Z,-1.78
2019-01-03T06:00:35.268Z,-1.57
2019-01-03T06:03:09.994Z,-1.70
2019-01-03T06:05:43.219Z,-1.61
2019-01-03T06:09:19.256Z,-1.62
2019-01-03T06:11:58.793Z,-1.91
2019-01-03T06:14:31.316Z,-1.66
2019-01-03T06:21:30.311Z,-1.72
2019-01-03T06:26:09.454Z,-2.04
2019-01-03T06:30:48.955Z,-1.83
2019-01-03T06:33:30.082Z,-1.86
2019-01-03T06:38:10.965Z,-2.00
2019-01-03T06:40:44.565Z,-1.92
2019-01-03T06:43:21.081Z,-1.91
2019-01-03T06:45:54.539Z,-1.94
2019-01-03T06:48:31.104Z,-2.35
2019-01-03T06:51:04.515Z,-1.98
2019-01-03T06:53:44.029Z,-1.99
2019-01-03T06:56:20.475Z,-2.02
2019-01-03T06:58:54.033Z,-2.05
2019-01-03T07:04:17.558Z,-2.07
2019-01-03T07:06:58.601Z,-2.09
2019-01-03T07:09:31.799Z,-2.09
2019-01-03T07:12:05.634Z,-2.11
2019-01-03T07:14:46.832Z,-2.11
2019-01-03T07:17:24.565Z,-2.12
2019-01-03T07:21:01.859Z,-2.11
2019-01-03T07:23:35.429Z,-2.49
2019-01-03T07:26:08.800Z,-2.76
2019-01-03T07:28:43.096Z,-2.24
2019-01-03T07:32:19.713Z,-2.14
2019-01-03T07:34:53.651Z,-2.31
2019-01-03T07:39:34.457Z,-2.15
2019-01-03T07:42:08.122Z,-2.19
2019-01-03T07:44:47.279Z,-2.21
2019-01-03T07:48:17.775Z,-2.19
2019-01-03T07:50:56.747Z,-2.19
2019-01-03T07:53:30.171Z,-2.45
2019-01-03T07:56:05.795Z,-2.33
2019-01-03T07:58:38.892Z,-2.21
2019-01-03T08:01:15.203Z,-2.21
2019-01-03T08:03:56.191Z,-2.34
2019-01-03T08:07:27.609Z,-2.19
2019-01-03T08:09:59.910Z,-2.53
2019-01-03T08:14:35.119Z,-2.64
2019-01-03T08:17:08.622Z,-2.13
2019-01-03T08:20:44.940Z,-2.14
2019-01-03T08:23:18.270Z,-2.36
2019-01-03T08:25:52.711Z,-2.09
2019-01-03T08:28:29.790Z,-2.07
2019-01-03T08:31:11.863Z,-2.06
2019-01-03T08:33:45.275Z,-2.04
2019-01-03T08:36:20.989Z,-2.01
2019-01-03T08:38:54.528Z,-2.00
2019-01-03T08:41:28.368Z,-1.96
2019-01-03T08:44:02.756Z,-1.91
2019-01-03T08:46:37.014Z,-1.83
2019-01-03T08:49:10.742Z,-1.81
2019-01-03T08:51:47.807Z,-1.74
2019-01-03T08:56:24.324Z,-1.79
2019-01-03T08:59:08.537Z,-2.09
2019-01-03T09:01:42.300Z,-1.68
2019-01-03T09:04:48.554Z,-1.62
2019-01-03T09:07:22.214Z,-1.60
2019-01-03T09:11:03.686Z,-2.07
2019-01-03T09:14:43.584Z,-1.87
2019-01-03T09:20:02.287Z,-1.42
2019-01-03T09:24:40.017Z,-1.41
2019-01-03T09:27:14.347Z,-1.27
2019-01-03T09:29:51.720Z,-1.25
2019-01-03T09:32:30.352Z,-1.22
2019-01-03T09:35:03.576Z,-1.31
2019-01-03T09:37:45.245Z,-1.16
2019-01-03T09:40:48.548Z,-1.12
2019-01-03T09:43:52.945Z,-2.03
2019-01-03T09:46:20.660Z,-1.00
2019-01-03T09:48:48.782Z,-1.30
2019-01-03T09:51:16.690Z,-1.46
2019-01-03T09:53:44.774Z,-1.13
2019-01-03T09:56:12.769Z,-0.63
2019-01-03T09:58:40.727Z,-0.85
2019-01-03T10:01:08.375Z,-0.38
2019-01-03T10:03:36.750Z,-0.39
2019-01-03T10:06:04.887Z,-0.24
2019-01-03T10:08:33.277Z,0.00
2019-01-03T10:11:01.335Z,0.11
2019-01-03T10:13:29.133Z,0.21
2019-01-03T10:15:56.955Z,0.21
2019-01-03T10:18:24.990Z,0.43
2019-01-03T10:20:53.034Z,0.55
2019-01-03T10:23:22.230Z,0.65
2019-01-03T10:25:50.288Z,0.75
2019-01-03T10:28:18.344Z,0.88
2019-01-03T10:30:46.904Z,-0.53
2019-01-03T10:33:15.012Z,1.11
2019-01-03T10:35:42.710Z,1.21
2019-01-03T10:38:10.451Z,1.30
2019-01-03T10:40:39.670Z,1.39
2019-01-03T10:43:07.472Z,1.42
2019-01-03T10:45:36.623Z,1.46
2019-01-03T10:48:08.091Z,1.53
2019-01-03T10:50:36.283Z,1.64
2019-01-03T10:53:04.613Z,1.75
2019-01-03T10:55:33.576Z,1.50
2019-01-03T10:58:01.625Z,1.73
2019-01-03T11:00:31.002Z,2.04
2019-01-03T11:02:59.619Z,2.12
2019-01-03T11:05:32.287Z,2.17
2019-01-03T11:08:00.398Z,2.12
2019-01-03T11:10:28.347Z,2.26
2019-01-03T11:12:56.173Z,2.28
2019-01-03T11:15:37.633Z,1.80
2019-01-03T11:18:09.156Z,2.42
2019-01-03T11:20:38.230Z,2.48
2019-01-03T11:23:06.222Z,2.51
2019-01-03T11:25:34.292Z,1.70
2019-01-03T11:28:02.113Z,2.25
2019-01-03T11:30:31.465Z,2.39
2019-01-03T11:33:00.308Z,0.42
2019-01-03T11:35:34.158Z,2.42
2019-01-03T11:38:07.299Z,2.37
2019-01-03T11:40:35.163Z,2.30
2019-01-03T11:43:03.285Z,2.30
2019-01-03T11:45:31.619Z,1.95
2019-01-03T11:47:59.615Z,2.27
2019-01-03T11:50:27.420Z,2.24
2019-01-03T11:52:55.155Z,2.21
2019-01-03T11:55:23.131Z,2.25
2019-01-03T11:57:50.871Z,2.27
2019-01-03T12:00:18.942Z,2.29
2019-01-03T12:02:47.027Z,2.30
2019-01-03T12:05:15.134Z,2.32
2019-01-03T12:07:43.020Z,2.40
2019-01-03T12:10:11.462Z,2.37
2019-01-03T12:12:39.146Z,2.50
2019-01-03T12:15:08.205Z,2.46
2019-01-03T12:17:36.232Z,2.66
2019-01-03T12:20:04.678Z,2.68
2019-01-03T12:22:33.036Z,2.67
2019-01-03T12:25:01.338Z,2.74
2019-01-03T12:27:29.160Z,2.78
2019-01-03T12:29:58.860Z,1.38
2019-01-03T12:32:27.919Z,0.96
2019-01-03T12:35:06.401Z,2.76
2019-01-03T12:37:35.542Z,2.72
2019-01-03T12:40:04.945Z,1.70
2019-01-03T12:42:32.684Z,2.69
2019-01-03T12:45:01.402Z,2.68
2019-01-03T12:47:30.145Z,2.69
2019-01-03T12:50:01.600Z,2.67
2019-01-03T12:52:30.481Z,2.70
2019-01-03T12:54:59.022Z,2.74
2019-01-03T12:57:28.879Z,2.77
2019-01-03T13:00:00.108Z,2.83
2019-01-03T13:02:27.835Z,2.90
2019-01-03T13:04:55.859Z,2.94
2019-01-03T13:07:24.381Z,3.01
2019-01-03T13:09:55.815Z,3.07
2019-01-03T13:12:23.826Z,3.08
2019-01-03T13:14:51.926Z,3.14
2019-01-03T13:17:21.458Z,3.19
2019-01-03T13:19:52.829Z,3.19
2019-01-03T13:22:24.243Z,2.91
2019-01-03T13:24:53.480Z,3.14
2019-01-03T13:27:25.590Z,3.08
2019-01-03T13:29:54.704Z,3.04
2019-01-03T13:32:24.092Z,2.96
2019-01-03T13:34:52.526Z,2.96
2019-01-03T13:37:24.691Z,2.84
2019-01-03T13:39:53.638Z,2.86
2019-01-03T13:42:21.532Z,2.85
2019-01-03T13:44:49.765Z,2.77
2019-01-03T13:47:19.313Z,2.73
2019-01-03T13:49:47.473Z,2.69
2019-01-03T13:52:15.723Z,2.05
2019-01-03T13:54:43.451Z,2.62
2019-01-03T13:57:11.848Z,1.45
2019-01-03T13:59:40.020Z,2.54
2019-01-03T14:02:07.813Z,2.52
2019-01-03T14:04:35.564Z,2.53
2019-01-03T14:07:04.191Z,2.54
2019-01-03T14:09:32.155Z,2.55
2019-01-03T14:12:00.087Z,2.57
2019-01-03T14:14:28.241Z,2.54
2019-01-03T14:16:58.267Z,2.47
2019-01-03T14:19:26.080Z,2.45
2019-01-03T14:21:54.692Z,2.44
2019-01-03T14:24:23.195Z,2.43
2019-01-03T14:26:56.824Z,2.40
2019-01-03T14:29:25.803Z,2.38
2019-01-03T14:31:54.127Z,2.38
2019-01-03T14:34:22.636Z,2.41
2019-01-03T14:36:52.052Z,2.43
2019-01-03T14:39:21.245Z,2.43
2019-01-03T14:41:55.227Z,2.41
2019-01-03T14:44:26.107Z,2.24
2019-01-03T14:47:02.371Z,2.33
2019-01-03T14:49:31.362Z,2.29
2019-01-03T14:52:01.413Z,1.59
2019-01-03T14:54:35.299Z,2.22
2019-01-03T14:57:03.128Z,2.16
2019-01-03T14:59:31.482Z,2.11
2019-01-03T15:02:00.641Z,2.07
2019-01-03T15:04:28.456Z,2.05
2019-01-03T15:06:56.199Z,2.04
2019-01-03T15:09:27.462Z,2.02
2019-01-03T15:11:55.408Z,1.88
2019-01-03T15:14:25.081Z,1.72
2019-01-03T15:16:52.774Z,1.94
2019-01-03T15:19:20.855Z,1.80
2019-01-03T15:21:49.153Z,0.50
2019-01-03T15:24:17.122Z,1.85
2019-01-03T15:26:45.187Z,1.82
2019-01-03T15:29:13.424Z,1.78
2019-01-03T15:31:43.708Z,1.73
2019-01-03T15:34:12.832Z,1.71
2019-01-03T15:36:41.067Z,1.68
2019-01-03T15:39:09.306Z,1.63
2019-01-03T15:41:37.329Z,0.82
2019-01-03T15:44:05.599Z,1.57
2019-01-03T15:46:33.912Z,1.56
2019-01-03T15:49:02.894Z,0.93
2019-01-03T15:51:31.288Z,1.48
2019-01-03T15:54:00.066Z,-0.07
2019-01-03T15:56:27.770Z,1.40
2019-01-03T15:59:00.536Z,1.37
2019-01-03T16:01:28.587Z,0.10
2019-01-03T16:03:56.578Z,1.32
2019-01-03T16:06:25.271Z,0.96
2019-01-03T16:08:58.964Z,1.26
2019-01-03T16:11:27.371Z,0.76
2019-01-03T16:13:55.667Z,1.21
2019-01-03T16:16:24.743Z,1.19
2019-01-03T16:18:52.492Z,1.17
2019-01-03T16:21:24.510Z,1.15
2019-01-03T16:23:52.483Z,0.65
2019-01-03T16:26:20.955Z,1.10
2019-01-03T16:28:49.041Z,1.08
2019-01-03T16:31:16.990Z,1.05
2019-01-03T16:33:44.683Z,0.69
2019-01-03T16:36:12.896Z,1.01
2019-01-03T16:38:40.711Z,0.99
2019-01-03T16:41:13.333Z,0.99
2019-01-03T16:43:42.026Z,-0.99
2019-01-03T16:46:13.187Z,0.93
2019-01-03T16:48:40.955Z,0.90
2019-01-03T16:51:08.874Z,0.87
2019-01-03T16:53:36.911Z,0.89
2019-01-03T16:56:05.360Z,0.85
2019-01-03T16:58:33.234Z,0.86
2019-01-03T17:01:01.127Z,0.86
2019-01-03T17:06:02.051Z,0.85
2019-01-03T17:08:29.878Z,0.69
2019-01-03T17:10:58.451Z,0.88
2019-01-03T17:13:26.651Z,0.88
2019-01-03T17:15:56.041Z,0.09
2019-01-03T17:18:25.293Z,0.91
2019-01-03T17:20:54.726Z,0.91
2019-01-03T17:23:26.279Z,0.91
2019-01-03T17:25:54.391Z,0.92
2019-01-03T17:28:22.444Z,0.84
2019-01-03T17:30:50.212Z,0.96
2019-01-03T17:33:18.820Z,0.98
2019-01-03T17:35:46.684Z,0.97
2019-01-03T17:38:17.454Z,0.67
2019-01-03T17:40:45.989Z,0.68
2019-01-03T17:43:13.855Z,1.02
2019-01-03T17:45:44.960Z,1.04
2019-01-03T17:48:13.668Z,1.06
2019-01-03T17:50:41.656Z,1.07
2019-01-03T17:53:11.310Z,0.51
2019-01-03T17:55:41.559Z,1.11
2019-01-03T17:58:11.134Z,1.12
2019-01-03T18:00:42.299Z,1.13
2019-01-03T18:03:13.721Z,1.13
2019-01-03T18:05:44.180Z,1.14
2019-01-03T18:08:13.622Z,0.48
2019-01-03T18:10:46.995Z,1.15
2019-01-03T18:13:14.856Z,1.16
2019-01-03T18:15:43.476Z,1.17
2019-01-03T18:18:14.053Z,0.24
2019-01-03T18:20:43.800Z,1.16
2019-01-03T18:23:13.928Z,1.16
2019-01-03T18:25:42.279Z,1.15
2019-01-03T18:28:11.462Z,-0.13
2019-01-03T18:30:39.340Z,1.16
2019-01-03T18:33:09.844Z,1.17
2019-01-03T18:35:38.417Z,1.17
2019-01-03T18:38:06.580Z,1.16
2019-01-03T18:40:35.143Z,0.68
2019-01-03T18:43:04.478Z,1.13
2019-01-03T18:45:32.601Z,1.09
2019-01-03T18:48:02.269Z,0.49
2019-01-03T18:50:31.090Z,-0.64
2019-01-03T18:52:59.702Z,1.09
2019-01-03T18:55:31.085Z,1.09
2019-01-03T18:57:59.498Z,1.09
2019-01-03T19:00:30.962Z,0.69
2019-01-03T19:02:58.724Z,1.06
2019-01-03T19:05:30.738Z,0.93
2019-01-03T19:08:02.448Z,1.07
2019-01-03T19:10:32.972Z,1.05
2019-01-03T19:13:04.157Z,1.04
2019-01-03T19:15:32.814Z,1.00
2019-01-03T19:18:00.873Z,1.04
2019-01-03T19:20:29.803Z,1.05
2019-01-03T19:22:57.909Z,1.05
2019-01-03T19:25:26.174Z,1.07
2019-01-03T19:27:54.435Z,1.08
2019-01-03T19:30:23.533Z,1.05
2019-01-03T19:32:51.667Z,1.10
2019-01-03T19:35:19.434Z,1.07
2019-01-03T19:37:48.337Z,1.07
2019-01-03T19:40:16.464Z,1.07
2019-01-03T19:42:49.038Z,1.09
2019-01-03T19:45:17.812Z,1.09
2019-01-03T19:47:50.450Z,1.09
2019-01-03T19:50:20.245Z,1.09
2019-01-03T19:52:51.881Z,1.10
2019-01-03T19:55:21.108Z,1.09
2019-01-03T19:57:50.664Z,1.07
2019-01-03T20:00:18.640Z,0.63
2019-01-03T20:02:47.921Z,1.09
2019-01-03T20:05:17.519Z,1.09
2019-01-03T20:07:52.172Z,0.47
2019-01-03T20:10:27.369Z,0.86
2019-01-03T20:12:55.543Z,1.10
2019-01-03T20:15:25.180Z,1.10
2019-01-03T20:17:53.603Z,0.76
2019-01-03T20:20:21.600Z,1.12
2019-01-03T20:22:54.475Z,1.12
2019-01-03T20:25:22.986Z,1.10
2019-01-03T20:27:55.293Z,1.10
2019-01-03T20:30:30.113Z,1.12
2019-01-03T20:32:58.287Z,1.11
2019-01-03T20:35:26.266Z,1.11
2019-01-03T20:37:56.792Z,1.11
2019-01-03T20:40:24.960Z,1.12
2019-01-03T20:42:53.982Z,-0.32
2019-01-03T20:45:22.067Z,1.11
2019-01-03T20:47:50.688Z,1.13
2019-01-03T20:50:18.602Z,1.12
2019-01-03T20:52:50.517Z,1.13
2019-01-03T20:55:21.895Z,1.14
2019-01-03T20:57:52.755Z,1.14
2019-01-03T21:00:21.280Z,1.13
2019-01-03T21:02:50.090Z,1.14
2019-01-03T21:05:26.787Z,0.93
2019-01-03T21:08:04.347Z,1.01
2019-01-03T21:10:32.802Z,1.10
2019-01-03T21:13:04.435Z,1.07
2019-01-03T21:15:35.850Z,1.03
2019-01-03T21:18:05.359Z,0.42
2019-01-03T21:20:36.304Z,0.75
2019-01-03T21:23:07.087Z,0.95
2019-01-03T21:25:35.663Z,0.69
2019-01-03T21:28:05.927Z,0.45
2019-01-03T21:30:33.921Z,0.91
2019-01-03T21:33:03.854Z,0.44
2019-01-03T21:35:34.050Z,0.42
2019-01-03T21:38:02.093Z,0.84
2019-01-03T21:40:31.541Z,0.81
2019-01-03T21:42:59.924Z,0.80
2019-01-03T21:45:30.748Z,0.41
2019-01-03T21:48:02.340Z,0.75
2019-01-03T21:50:30.727Z,0.51
2019-01-03T21:53:25.785Z,0.45
2019-01-03T21:56:09.440Z,0.80
2019-01-03T23:24:51.454Z,0.60
2019-01-03T23:27:20.214Z,0.95
2019-01-03T23:29:48.155Z,0.97
2019-01-03T23:32:17.603Z,1.01
2019-01-03T23:34:45.495Z,1.02
2019-01-03T23:37:14.020Z,1.06
2019-01-03T23:39:42.256Z,1.10
2019-01-03T23:42:10.240Z,1.13
2019-01-03T23:44:48.129Z,1.15
2019-01-03T23:47:17.613Z,-0.19
2019-01-03T23:49:45.550Z,1.23
2019-01-03T23:52:13.278Z,1.26
2019-01-03T23:54:41.669Z,1.27
2019-01-03T23:57:09.681Z,1.31
2019-01-03T23:59:37.614Z,1.33
